Flight Track Log - Related Links

Times and Time Zones

All times are in EDT time to prevent confusion due to time zone crossing. See the CLH304 flight status page for this flight to view local times or setup timezone preferences in your user account.

Time Position Orientation Groundspeed Altitude Reporting Facility
EDT Latitude Longitude Course Direction KTS MPH feet Rate Location/Type
Thu 04:01:00 PM 49.4706 8.4313 187° South  Level Estimated
Thu 04:02:00 PM 49.3779 8.4129 187° South  Level Estimated
Thu 04:03:00 PM 49.2853 8.3946 187° South  Level Estimated
Thu 04:04:00 PM 49.1926 8.3764 187° South  Level Estimated
Thu 04:05:00 PM 49.1000 8.3582 187° South  Level Estimated
Thu 04:06:00 PM 49.0073 8.3401 187° South  Level Estimated
Thu 04:07:00 PM 48.9146 8.3220 187° South  Level Estimated
Thu 04:08:00 PM 48.8220 8.3041 187° South  Level Estimated
Thu 04:09:00 PM 48.7293 8.2861 187° South  Level Estimated
Thu 04:10:00 PM 48.6366 8.2683 187° South  Level Estimated
Thu 04:11:00 PM 48.5439 8.2505 187° South  Level Estimated
Thu 04:12:00 PM 48.4513 8.2328 187° South  Level Estimated
Thu 04:13:00 PM 48.3586 8.2152 187° South  Level Estimated
Thu 04:14:00 PM 48.2659 8.1976 187° South  Level Estimated
Thu 04:15:00 PM 48.1732 8.1800 187° South  Level Estimated
Thu 04:16:00 PM 48.0805 8.1626 187° South  Level Estimated
Thu 04:17:00 PM 47.9878 8.1452 187° South  Level Estimated
Thu 04:18:00 PM 47.8951 8.1279 187° South  Level Estimated
Thu 04:19:00 PM 47.8024 8.1106 187° South  Level Estimated
Thu 04:20:00 PM 47.7098 8.0934 187° South  Level Estimated
Thu 04:21:00 PM 47.6171 8.0762 187° South  Level Estimated
Thu 04:22:00 PM 47.5243 8.0591 187° South  Level Estimated
Thu 04:23:00 PM 47.4316 8.0421 187° South  Level Estimated
Thu 04:24:00 PM 47.3389 8.0251 187° South  Level Estimated
Thu 04:25:00 PM 47.2462 8.0082 187° South  Level Estimated
Thu 04:26:00 PM 47.1535 7.9914 187° South  Level Estimated
Thu 04:27:00 PM 47.0608 7.9746 187° South  Level Estimated
Thu 04:28:00 PM 46.9681 7.9579 187° South  Level Estimated
Thu 04:29:00 PM 46.8754 7.9412 187° South  Level Estimated
Thu 04:30:00 PM 46.7826 7.9246 187° South  Level Estimated
Thu 04:31:00 PM 46.6899 7.9080 187° South  Level Estimated
Thu 04:32:00 PM 46.5972 7.8915 187° South  Level Estimated
Thu 04:33:00 PM 46.5302 7.8796 187° South  Level Estimated
Thu 04:34:00 PM 46.4632 7.8678 187° South  Level Estimated
Thu 04:35:00 PM 46.3963 7.8559 187° South  Level Estimated
Thu 04:36:00 PM 46.3293 7.8441 187° South  Level Estimated
Thu 04:37:00 PM 46.2623 7.8324 187° South  Level Estimated
Thu 04:38:00 PM 46.1953 7.8206 187° South  Level Estimated
Thu 04:39:00 PM 46.1283 7.8089 187° South  Level Estimated
Thu 04:40:00 PM 46.0614 7.7972 187° South  Level Estimated
Thu 04:41:00 PM 45.9944 7.7856 187° South  Level Estimated
Thu 04:42:00 PM 45.9274 7.7740 187° South  Level Estimated
Thu 04:43:00 PM 45.8604 7.7624 187° South  Level Estimated
Thu 04:44:00 PM 45.7934 7.7508 187° South  Level Estimated
Thu 04:45:00 PM 45.7264 7.7392 187° South  Level Estimated
Thu 04:46:00 PM 45.6594 7.7277 187° South  Level Estimated
Thu 04:47:00 PM 45.5924 7.7162 187° South  Level Estimated
Thu 04:48:00 PM 45.5255 7.7048 187° South  Level Estimated
Thu 04:49:00 PM 45.4585 7.6933 187° South  Level Estimated
Thu 04:50:00 PM 45.3915 7.6820 187° South  Level Estimated
Thu 04:51:00 PM 45.3245 7.6706 187° South  Level Estimated
Thu 04:52:00 PM 45.2575 7.6592 187° South  Level Estimated
Thu 04:53:00 PM 45.2008 7.6496 187° South  Level Estimated
Thu 04:54:00 PM 45.2008 7.6496 35° Northeast  Level Estimated
Thu 04:55:00 PM 45.2008 7.6496 35° Northeast  Level Estimated
Thu 04:56:00 PM 45.2008 7.6496 35° Northeast  Level Estimated
Thu 04:57:00 PM 45.2008 7.6496 35° Northeast  Level Estimated
Thu 04:58:00 PM 45.2008 7.6496 35° Northeast  Level Estimated
Thu 04:59:00 PM 45.2008 7.6496 35° Northeast  Level Estimated
Thu 05:00:00 PM 45.2008 7.6496 35° Northeast  Level Estimated
Thu 05:01:00 PM 45.2008 7.6496 35° Northeast  Level Estimated
Thu 05:02:00 PM 45.2008 7.6496 35° Northeast  Level Estimated
Thu 05:03:00 PM 45.2008 7.6496 35° Northeast  Level Estimated
Thu 05:04:00 PM 45.2008 7.6496 35° Northeast  Level Estimated
Thu 05:05:00 PM 45.2008 7.6496 35° Northeast  Level Estimated
Thu 05:06:00 PM 45.2008 7.6496 35° Northeast  Level Estimated
Thu 05:07:00 PM 45.2008 7.6496 35° Northeast  Level Estimated
Thu 05:08:00 PM 45.2008 7.6496 35° Northeast  Level Estimated
Thu 05:09:00 PM 45.2008 7.6496 35° Northeast  Level Estimated
Thu 05:10:00 PM 45.2008 7.6496 35° Northeast  Level Estimated
Thu 05:11:00 PM 45.2008 7.6496 35° Northeast  Level Estimated
Thu 05:12:00 PM 45.2008 7.6496 35° Northeast  Level Estimated
Thu 05:13:00 PM 45.2008 7.6496 35° Northeast  Level Estimated
Thu 05:14:00 PM 45.2008 7.6496 35° Northeast  Level Estimated
Thu 05:15:00 PM 45.2008 7.6496 35° Northeast  Level Estimated
Thu 05:16:00 PM 45.2008 7.6496 35° Northeast  Level Estimated
Thu 05:17:00 PM 45.2008 7.6496 35° Northeast  Level Estimated
Thu 05:18:00 PM 45.2008 7.6496 35° Northeast  Level Estimated
Thu 05:19:00 PM 45.2008 7.6496 35° Northeast  Level Estimated
Thu 05:20:00 PM 45.2008 7.6496 35° Northeast  Level Estimated
Thu 05:21:00 PM 45.2008 7.6496 35° Northeast  Level Estimated
Thu 05:22:00 PM 45.2008 7.6496 35° Northeast  Level Estimated
Thu 05:23:00 PM 45.2008 7.6496 35° Northeast  Level Estimated

Login

Don't have an account? Register now (free) for customized features, flight alerts, and more!